createdAt,value
2022-08-05T00:01:28.489Z,17.42
2022-08-05T00:03:57.153Z,17.45
2022-08-05T00:06:29.244Z,17.46
2022-08-05T00:09:00.777Z,17.48
2022-08-05T00:11:34.453Z,17.49
2022-08-05T00:14:11.951Z,17.50
2022-08-05T00:16:52.387Z,17.46
2022-08-05T00:19:23.468Z,17.46
2022-08-05T00:21:51.885Z,17.46
2022-08-05T00:24:24.663Z,17.48
2022-08-05T00:26:57.652Z,17.49
2022-08-05T00:29:26.139Z,17.47
2022-08-05T00:32:13.012Z,17.43
2022-08-05T00:35:05.230Z,17.40
2022-08-05T00:37:51.190Z,17.34
2022-08-05T00:40:27.056Z,17.28
2022-08-05T00:42:56.755Z,17.24
2022-08-05T00:45:28.276Z,17.24
2022-08-05T00:48:06.634Z,17.22
2022-08-05T00:50:33.968Z,17.22
2022-08-05T00:53:00.748Z,17.23
2022-08-05T00:55:33.948Z,17.24
2022-08-05T00:58:11.183Z,17.24
2022-08-05T01:00:38.776Z,17.23
2022-08-05T01:03:07.878Z,17.21
2022-08-05T01:05:35.047Z,17.21
2022-08-05T01:08:30.767Z,17.21
2022-08-05T01:11:01.132Z,17.18
2022-08-05T01:13:58.457Z,17.16
2022-08-05T01:16:47.777Z,17.13
2022-08-05T01:19:46.390Z,17.10
2022-08-05T01:22:24.085Z,17.01
2022-08-05T01:24:57.822Z,16.91
2022-08-05T01:27:54.856Z,16.87
2022-08-05T01:30:34.823Z,16.81
2022-08-05T01:33:06.138Z,16.70
2022-08-05T01:35:51.176Z,16.62
2022-08-05T01:38:27.253Z,16.54
2022-08-05T01:40:58.791Z,16.51
2022-08-05T01:43:28.109Z,16.47
2022-08-05T01:45:57.143Z,16.45
2022-08-05T01:48:28.568Z,16.41
2022-08-05T01:50:56.486Z,16.36
2022-08-05T01:53:57.847Z,16.34
2022-08-05T01:56:13.936Z,16.27
2022-08-05T01:59:04.247Z,16.24
2022-08-05T02:01:37.984Z,16.21
2022-08-05T02:04:09.249Z,16.20
2022-08-05T02:06:38.786Z,16.21
2022-08-05T02:09:07.127Z,16.21
2022-08-05T02:11:47.903Z,16.17
2022-08-05T02:14:24.533Z,16.11
2022-08-05T02:16:54.847Z,16.09
2022-08-05T02:19:35.027Z,16.05
2022-08-05T02:22:08.444Z,16.02
2022-08-05T02:24:39.431Z,16.02
2022-08-05T02:27:10.763Z,16.01
2022-08-05T02:29:58.527Z,16.04
2022-08-05T02:32:29.373Z,16.06
2022-08-05T02:35:13.414Z,16.12
2022-08-05T02:37:43.198Z,16.16
2022-08-05T02:40:17.172Z,16.19
2022-08-05T02:42:47.485Z,16.21
2022-08-05T02:45:21.425Z,16.22
2022-08-05T02:48:06.999Z,16.25
2022-08-05T02:50:44.107Z,16.24
2022-08-05T02:53:19.063Z,16.21
2022-08-05T02:55:55.109Z,16.17
2022-08-05T02:58:27.470Z,16.08
2022-08-05T03:00:56.658Z,15.95
2022-08-05T03:03:23.926Z,15.86
2022-08-05T03:06:56.225Z,15.84
2022-08-05T03:08:42.586Z,15.83
2022-08-05T03:11:57.079Z,15.83
2022-08-05T03:14:13.231Z,15.84
2022-08-05T03:16:40.506Z,15.85
2022-08-05T03:19:17.152Z,15.86
2022-08-05T03:21:53.897Z,15.91
2022-08-05T03:24:29.234Z,15.91
2022-08-05T03:26:58.582Z,15.90
2022-08-05T03:29:45.691Z,15.85
2022-08-05T03:32:14.209Z,15.77
2022-08-05T03:34:42.040Z,15.66
2022-08-05T03:37:16.247Z,15.55
2022-08-05T03:39:58.593Z,15.40
2022-08-05T03:42:27.152Z,15.26
2022-08-05T03:44:55.776Z,15.16
2022-08-05T03:47:24.199Z,15.02
2022-08-05T03:49:52.434Z,14.95
2022-08-05T03:52:49.193Z,14.85
2022-08-05T03:56:04.436Z,14.76
2022-08-05T03:58:16.426Z,14.68
2022-08-05T04:00:51.480Z,14.60
2022-08-05T04:03:28.572Z,14.51
2022-08-05T04:05:59.282Z,14.43
2022-08-05T04:08:30.107Z,14.38
2022-08-05T04:11:03.582Z,14.35
2022-08-05T04:13:50.421Z,14.32
2022-08-05T04:16:24.258Z,14.29
2022-08-05T04:18:57.703Z,14.30
2022-08-05T04:22:08.824Z,14.26
2022-08-05T04:24:14.248Z,14.27
2022-08-05T04:26:46.686Z,14.24
2022-08-05T04:29:13.316Z,14.26
2022-08-05T04:31:41.226Z,14.23
2022-08-05T04:34:31.783Z,14.19
2022-08-05T04:36:56.521Z,14.22
2022-08-05T04:39:23.573Z,14.21
2022-08-05T04:41:50.956Z,14.25
2022-08-05T04:44:21.435Z,14.26
2022-08-05T04:46:56.685Z,14.27
2022-08-05T04:49:24.602Z,14.33
2022-08-05T04:52:00.442Z,14.36
2022-08-05T04:54:27.430Z,14.41
2022-08-05T04:56:58.912Z,14.46
2022-08-05T04:59:36.841Z,14.49
2022-08-05T05:02:37.593Z,14.51
2022-08-05T05:05:02.113Z,14.52
2022-08-05T05:07:32.696Z,14.52
2022-08-05T05:10:02.035Z,14.56
2022-08-05T05:12:29.757Z,14.56
2022-08-05T05:14:56.324Z,14.59
2022-08-05T05:17:24.684Z,14.64
2022-08-05T05:20:11.374Z,14.73
2022-08-05T05:22:40.712Z,14.80
2022-08-05T05:25:16.408Z,14.91
2022-08-05T05:27:53.743Z,15.04
2022-08-05T05:30:30.841Z,15.14
2022-08-05T05:33:09.057Z,15.22
2022-08-05T05:35:44.799Z,15.33
2022-08-05T05:38:12.913Z,15.42
2022-08-05T05:40:48.343Z,15.56
2022-08-05T05:43:27.693Z,15.68
2022-08-05T05:46:03.465Z,15.84
2022-08-05T05:48:31.747Z,16.00
2022-08-05T05:50:58.397Z,16.15
2022-08-05T05:53:45.920Z,16.28
2022-08-05T05:56:31.359Z,16.49
2022-08-05T05:59:03.226Z,16.58
2022-08-05T06:01:37.062Z,16.75
2022-08-05T06:04:11.709Z,16.88
2022-08-05T06:06:43.317Z,17.04
2022-08-05T06:09:17.044Z,17.18
2022-08-05T06:12:01.070Z,17.34
2022-08-05T06:14:31.158Z,17.48
2022-08-05T06:16:58.795Z,17.60
2022-08-05T06:19:35.394Z,17.77
2022-08-05T06:22:04.114Z,17.91
2022-08-05T06:24:32.032Z,18.01
2022-08-05T06:26:58.652Z,18.12
2022-08-05T06:29:46.437Z,18.25
2022-08-05T06:32:13.650Z,18.37
2022-08-05T06:34:57.963Z,18.60
2022-08-05T06:37:58.038Z,18.73
2022-08-05T06:40:18.303Z,18.80
2022-08-05T06:42:51.894Z,18.79
2022-08-05T06:45:43.924Z,18.89
2022-08-05T06:48:47.060Z,18.93
2022-08-05T06:50:53.967Z,19.00
2022-08-05T06:53:27.732Z,19.10
2022-08-05T06:55:55.762Z,19.26
2022-08-05T06:58:35.068Z,19.51
2022-08-05T07:01:06.708Z,19.75
2022-08-05T07:03:34.331Z,19.84
2022-08-05T07:06:05.774Z,19.81
2022-08-05T07:08:47.195Z,19.68
2022-08-05T07:11:15.878Z,19.72
2022-08-05T07:14:01.736Z,19.62
2022-08-05T07:17:58.678Z,19.93
2022-08-05T07:22:28.976Z,20.98
2022-08-05T07:25:21.935Z,21.25
2022-08-05T07:27:57.134Z,21.26
2022-08-05T07:30:31.719Z,21.09
2022-08-05T07:32:59.912Z,21.12
2022-08-05T07:35:55.665Z,20.74
2022-08-05T07:38:32.174Z,20.90
2022-08-05T07:41:16.674Z,21.23
2022-08-05T07:43:49.167Z,21.95
2022-08-05T07:46:24.620Z,22.45
2022-08-05T07:49:02.943Z,22.30
2022-08-05T07:51:37.079Z,22.13
2022-08-05T07:54:08.332Z,21.70
2022-08-05T07:57:00.413Z,21.33
2022-08-05T07:59:38.691Z,20.98
2022-08-05T08:02:17.048Z,21.00
2022-08-05T08:04:47.517Z,21.26
2022-08-05T08:07:15.315Z,21.47
2022-08-05T08:09:42.475Z,21.59
2022-08-05T08:12:35.585Z,21.73
2022-08-05T08:14:56.286Z,21.71
2022-08-05T08:17:23.740Z,21.68
2022-08-05T08:20:23.515Z,21.66
2022-08-05T08:22:37.457Z,21.61
2022-08-05T08:25:16.710Z,21.61
2022-08-05T08:27:51.582Z,21.64
2022-08-05T08:30:32.687Z,21.71
2022-08-05T08:33:13.828Z,21.68
2022-08-05T08:35:52.796Z,21.82
2022-08-05T08:38:35.108Z,22.12
2022-08-05T08:41:08.255Z,22.34
2022-08-05T08:45:18.683Z,22.26
2022-08-05T08:46:27.406Z,22.46
2022-08-05T08:49:06.110Z,22.56
2022-08-05T08:52:02.873Z,22.38
2022-08-05T08:54:30.721Z,22.03
2022-08-05T08:57:00.526Z,21.99
2022-08-05T08:59:33.537Z,21.89
2022-08-05T09:02:04.508Z,22.18
2022-08-05T09:04:57.767Z,21.95
2022-08-05T09:07:29.025Z,22.36
2022-08-05T09:10:06.843Z,22.38
2022-08-05T09:12:34.668Z,22.70
2022-08-05T09:15:05.777Z,22.74
2022-08-05T09:17:42.347Z,22.78
2022-08-05T09:20:20.890Z,23.31
2022-08-05T09:23:19.078Z,23.31
2022-08-05T09:26:02.328Z,22.82
2022-08-05T09:28:33.445Z,22.40
2022-08-05T09:31:22.299Z,23.21
2022-08-05T09:34:09.636Z,24.04
2022-08-05T09:36:55.716Z,23.55
2022-08-05T09:39:41.391Z,23.18
2022-08-05T09:42:17.222Z,22.83
2022-08-05T09:44:52.520Z,23.83
2022-08-05T09:47:25.984Z,24.37
2022-08-05T09:50:02.353Z,24.23
2022-08-05T09:52:34.131Z,24.71
2022-08-05T09:55:56.421Z,24.80
2022-08-05T09:57:58.594Z,25.29
2022-08-05T10:00:26.523Z,25.95
2022-08-05T10:02:58.326Z,26.02
2022-08-05T10:05:28.192Z,25.43
2022-08-05T10:08:36.552Z,24.66
2022-08-05T10:10:53.851Z,24.22
2022-08-05T10:13:47.516Z,24.08
2022-08-05T10:16:37.562Z,23.70
2022-08-05T10:19:10.115Z,23.82
2022-08-05T10:21:40.444Z,24.15
2022-08-05T10:24:13.443Z,25.18
2022-08-05T10:26:48.847Z,25.98
2022-08-05T10:29:23.430Z,26.35
2022-08-05T10:32:52.052Z,26.45
2022-08-05T10:34:50.627Z,26.80
2022-08-05T10:37:18.496Z,27.11
2022-08-05T10:40:03.137Z,27.27
2022-08-05T10:42:36.597Z,27.56
2022-08-05T10:45:21.520Z,28.16
2022-08-05T10:48:30.593Z,27.45
2022-08-05T10:51:01.916Z,27.07
2022-08-05T10:54:00.996Z,27.71
2022-08-05T10:56:45.131Z,27.78
2022-08-05T11:00:02.963Z,27.40
2022-08-05T11:02:08.760Z,27.30
2022-08-05T11:04:46.600Z,27.57
2022-08-05T11:07:16.554Z,27.03
2022-08-05T11:09:46.559Z,26.46
2022-08-05T11:12:43.817Z,26.01
2022-08-05T11:15:21.503Z,26.93
2022-08-05T11:17:59.038Z,27.64
2022-08-05T11:20:39.256Z,28.22
2022-08-05T11:23:33.231Z,28.66
2022-08-05T11:26:09.109Z,29.50
2022-08-05T11:28:36.126Z,29.94
2022-08-05T11:31:06.551Z,29.84
2022-08-05T11:33:46.503Z,29.85
2022-08-05T11:36:34.385Z,28.66
2022-08-05T11:39:08.193Z,29.27
2022-08-05T11:42:00.658Z,27.69
2022-08-05T11:44:53.198Z,26.52
2022-08-05T11:47:49.751Z,26.13
2022-08-05T11:50:09.683Z,26.40
2022-08-05T11:52:41.684Z,27.32
2022-08-05T11:55:11.475Z,28.23
2022-08-05T11:58:10.028Z,28.71
2022-08-05T12:00:32.679Z,28.96
2022-08-05T12:03:29.105Z,28.91
2022-08-05T12:06:03.022Z,28.55
2022-08-05T12:08:31.413Z,28.77
2022-08-05T12:11:05.572Z,28.46
2022-08-05T12:13:48.639Z,28.49
2022-08-05T12:16:28.197Z,27.92
2022-08-05T12:18:56.218Z,28.15
2022-08-05T12:21:29.763Z,27.92
2022-08-05T12:24:22.011Z,28.03
2022-08-05T12:26:53.694Z,27.90
2022-08-05T12:29:23.508Z,28.14
2022-08-05T12:32:01.753Z,28.00
2022-08-05T12:34:35.727Z,28.54
2022-08-05T12:37:16.236Z,28.43
2022-08-05T12:39:56.491Z,28.30
2022-08-05T12:42:31.162Z,28.34
2022-08-05T12:45:10.212Z,28.73
2022-08-05T12:47:37.744Z,28.64
2022-08-05T12:50:15.237Z,27.98
2022-08-05T12:52:42.955Z,28.20
2022-08-05T12:55:22.799Z,28.36
2022-08-05T12:58:52.741Z,28.62
2022-08-05T13:02:05.860Z,28.68
2022-08-05T13:03:32.313Z,28.64
2022-08-05T13:06:00.112Z,28.75
2022-08-05T13:08:32.220Z,28.20
2022-08-05T13:11:01.233Z,27.74
2022-08-05T13:14:06.515Z,27.08
2022-08-05T13:16:16.731Z,27.38
2022-08-05T13:18:57.870Z,26.48
2022-08-05T13:21:28.280Z,25.82
2022-08-05T13:24:05.952Z,25.04
2022-08-05T13:26:35.883Z,24.12
2022-08-05T13:29:02.621Z,24.63
2022-08-05T13:32:04.525Z,25.65
2022-08-05T13:34:44.145Z,25.07
2022-08-05T13:37:10.716Z,24.78
2022-08-05T13:40:15.012Z,25.29
2022-08-05T13:42:24.674Z,25.64
2022-08-05T13:44:53.248Z,26.17
2022-08-05T13:47:35.569Z,25.80
2022-08-05T13:50:09.561Z,26.17
2022-08-05T13:53:01.225Z,26.25
2022-08-05T13:55:41.652Z,26.05
2022-08-05T13:58:14.609Z,26.19
2022-08-05T14:00:57.963Z,25.91
2022-08-05T14:03:24.754Z,25.68
2022-08-05T14:06:25.617Z,25.66
2022-08-05T14:08:38.156Z,25.62
2022-08-05T14:11:20.591Z,24.76
2022-08-05T14:13:55.060Z,25.50
2022-08-05T14:16:24.619Z,25.00
2022-08-05T14:18:51.385Z,24.26
2022-08-05T14:22:08.415Z,23.96
2022-08-05T14:24:05.199Z,23.55
2022-08-05T14:26:38.675Z,23.64
2022-08-05T14:29:15.707Z,22.91
2022-08-05T14:32:03.158Z,22.58
2022-08-05T14:34:35.213Z,23.08
2022-08-05T14:37:03.728Z,22.58
2022-08-05T14:39:31.374Z,23.29
2022-08-05T14:42:29.304Z,23.99
2022-08-05T14:44:56.651Z,23.93
2022-08-05T14:47:24.003Z,23.87
2022-08-05T14:50:19.901Z,22.89
2022-08-05T14:52:53.434Z,23.13
2022-08-05T14:55:25.130Z,23.41
2022-08-05T14:57:56.121Z,23.49
2022-08-05T15:00:27.686Z,23.84
2022-08-05T15:02:55.015Z,23.76
2022-08-05T15:05:21.643Z,23.76
2022-08-05T15:08:05.549Z,24.21
2022-08-05T15:10:38.930Z,24.09
2022-08-05T15:13:09.996Z,24.13
2022-08-05T15:15:55.723Z,24.15
2022-08-05T15:18:23.403Z,24.10
2022-08-05T15:20:56.002Z,23.95
2022-08-05T15:23:22.567Z,23.92
2022-08-05T15:25:51.916Z,23.79
2022-08-05T15:28:27.284Z,23.72
2022-08-05T15:30:55.009Z,23.50
2022-08-05T15:34:18.811Z,23.19
2022-08-05T15:36:43.989Z,23.07
2022-08-05T15:40:59.294Z,23.05
2022-08-05T15:41:59.142Z,22.73
2022-08-05T15:44:27.946Z,22.75
2022-08-05T15:46:56.874Z,22.81
2022-08-05T15:49:48.265Z,22.95
2022-08-05T15:52:29.357Z,23.17
2022-08-05T15:55:03.710Z,23.31
2022-08-05T15:57:33.222Z,23.42
2022-08-05T16:00:06.284Z,23.62
2022-08-05T16:02:33.486Z,23.58
2022-08-05T16:05:00.356Z,23.56
2022-08-05T16:07:30.201Z,23.40
2022-08-05T16:09:56.805Z,23.30
2022-08-05T16:12:23.630Z,23.07
2022-08-05T16:15:18.813Z,23.13
2022-08-05T16:17:58.030Z,23.32
2022-08-05T16:20:25.717Z,23.26
2022-08-05T16:22:54.575Z,23.21
2022-08-05T16:25:21.175Z,22.93
2022-08-05T16:28:02.244Z,22.72
2022-08-05T16:30:34.260Z,22.44
2022-08-05T16:33:03.307Z,22.29
2022-08-05T16:35:32.090Z,22.21
2022-08-05T16:38:00.655Z,21.86
2022-08-05T16:40:37.143Z,21.63
2022-08-05T16:43:04.206Z,21.40
2022-08-05T16:46:04.888Z,21.22
2022-08-05T16:48:25.914Z,20.93
2022-08-05T16:50:59.696Z,20.82
2022-08-05T16:53:32.380Z,20.65
2022-08-05T16:56:13.346Z,20.64
2022-08-05T16:58:41.035Z,20.54
2022-08-05T17:01:10.331Z,20.47
2022-08-05T17:03:37.488Z,20.39
2022-08-05T17:06:05.823Z,20.31
2022-08-05T17:08:52.145Z,20.18
2022-08-05T17:11:23.517Z,20.01
2022-08-05T17:14:00.629Z,20.03
2022-08-05T17:16:36.771Z,19.91
2022-08-05T17:19:09.662Z,19.71
2022-08-05T17:21:39.762Z,19.55
2022-08-05T17:24:18.628Z,19.42
2022-08-05T17:26:56.584Z,19.30
2022-08-05T17:29:39.941Z,19.29
2022-08-05T17:32:17.226Z,19.17
2022-08-05T17:34:48.457Z,19.15
2022-08-05T17:37:39.440Z,19.09
2022-08-05T17:40:10.273Z,18.95
2022-08-05T17:42:41.634Z,18.85
2022-08-05T17:45:20.308Z,18.76
2022-08-05T17:47:53.574Z,18.63
2022-08-05T17:50:28.116Z,18.57
2022-08-05T17:52:56.062Z,18.54
2022-08-05T17:55:34.547Z,18.44
2022-08-05T17:58:05.660Z,18.39
2022-08-05T18:00:34.679Z,18.29
2022-08-05T18:03:02.166Z,18.18
2022-08-05T18:05:35.331Z,18.14
2022-08-05T18:08:02.895Z,18.03
2022-08-05T18:10:33.507Z,17.94
2022-08-05T18:13:00.401Z,17.80
2022-08-05T18:15:31.173Z,17.67
2022-08-05T18:18:05.705Z,17.55
2022-08-05T18:20:37.922Z,17.45
2022-08-05T18:23:09.487Z,17.32
2022-08-05T18:25:45.150Z,17.23
2022-08-05T18:28:17.679Z,17.12
2022-08-05T18:30:51.066Z,17.03
2022-08-05T18:33:22.614Z,16.95
2022-08-05T18:36:03.983Z,16.89
2022-08-05T18:38:36.487Z,16.87
2022-08-05T18:41:53.580Z,16.77
2022-08-05T18:43:51.484Z,16.63
2022-08-05T18:46:19.741Z,16.49
2022-08-05T18:48:53.903Z,16.33
2022-08-05T18:52:06.709Z,16.26
2022-08-05T18:54:31.202Z,15.99
2022-08-05T18:57:00.924Z,15.81
2022-08-05T18:59:45.702Z,15.64
2022-08-05T19:02:26.938Z,15.48
2022-08-05T19:05:02.517Z,15.25
2022-08-05T19:07:42.352Z,15.09
2022-08-05T19:10:12.514Z,14.90
2022-08-05T19:12:39.111Z,14.71
2022-08-05T19:15:06.434Z,14.53
2022-08-05T19:17:59.879Z,14.35
2022-08-05T19:20:41.667Z,14.19
2022-08-05T19:24:04.987Z,14.07
2022-08-05T19:26:02.538Z,13.94
2022-08-05T19:28:30.893Z,13.78
2022-08-05T19:30:57.699Z,13.66
2022-08-05T19:33:35.812Z,13.57
2022-08-05T19:36:06.210Z,13.48
2022-08-05T19:38:36.446Z,13.38
2022-08-05T19:41:07.329Z,13.28
2022-08-05T19:44:04.765Z,13.15
2022-08-05T19:46:30.639Z,13.06
2022-08-05T19:49:05.428Z,12.96
2022-08-05T19:52:05.420Z,12.85
2022-08-05T19:54:26.955Z,12.76
2022-08-05T19:57:02.057Z,12.68
2022-08-05T20:00:01.484Z,12.66
2022-08-05T20:02:17.459Z,12.61
2022-08-05T20:04:50.128Z,12.58
2022-08-05T20:07:46.591Z,12.50
2022-08-05T20:10:11.805Z,12.53
2022-08-05T20:12:46.358Z,12.52
2022-08-05T20:15:23.038Z,12.45
2022-08-05T20:18:09.744Z,12.41
2022-08-05T20:20:37.950Z,12.35
2022-08-05T20:23:05.287Z,12.31
2022-08-05T20:25:33.890Z,12.28
2022-08-05T20:28:08.053Z,12.25
2022-08-05T20:30:40.430Z,12.23
2022-08-05T20:33:08.764Z,12.25
2022-08-05T20:35:40.458Z,12.14
2022-08-05T20:38:19.980Z,12.09
2022-08-05T20:40:53.321Z,12.01
2022-08-05T20:43:33.414Z,12.00
2022-08-05T20:46:10.213Z,11.96
2022-08-05T20:48:39.205Z,11.89
2022-08-05T20:51:08.979Z,11.82
2022-08-05T20:53:36.441Z,11.77
2022-08-05T20:56:08.359Z,11.72
2022-08-05T20:58:35.883Z,11.69
2022-08-05T21:01:04.440Z,11.67
2022-08-05T21:03:34.177Z,11.61
2022-08-05T21:06:01.911Z,11.56
2022-08-05T21:08:41.296Z,11.56
2022-08-05T21:11:15.108Z,11.58
2022-08-05T21:13:59.526Z,11.53
2022-08-05T21:16:29.891Z,11.54
2022-08-05T21:18:59.834Z,11.56
2022-08-05T21:21:39.339Z,11.52
2022-08-05T21:24:12.864Z,11.48
2022-08-05T21:26:41.244Z,11.47
2022-08-05T21:29:10.106Z,11.44
2022-08-05T21:31:41.322Z,11.42
2022-08-05T21:34:08.689Z,11.37
2022-08-05T21:36:37.346Z,11.31
2022-08-05T21:39:04.061Z,11.30
2022-08-05T21:41:34.019Z,11.21
2022-08-05T21:44:04.043Z,11.11
2022-08-05T21:46:32.522Z,11.04
2022-08-05T21:49:01.520Z,11.03
2022-08-05T21:52:16.192Z,10.94
2022-08-05T21:54:14.671Z,10.92
2022-08-05T21:56:44.647Z,10.92
2022-08-05T21:59:23.904Z,10.83
2022-08-05T22:01:51.503Z,10.84
2022-08-05T22:04:21.460Z,10.82
2022-08-05T22:06:52.711Z,10.72
2022-08-05T22:09:21.482Z,10.68
2022-08-05T22:11:49.371Z,10.65
2022-08-05T22:14:37.187Z,10.61
2022-08-05T22:17:06.670Z,10.60
2022-08-05T22:20:00.644Z,10.59
2022-08-05T22:22:28.049Z,10.58
2022-08-05T22:25:27.283Z,10.57
2022-08-05T22:28:09.000Z,10.50
2022-08-05T22:30:55.390Z,10.47
2022-08-05T22:33:56.542Z,10.43
2022-08-05T22:36:10.087Z,10.37
2022-08-05T22:38:37.130Z,10.37
2022-08-05T22:41:08.680Z,10.38
2022-08-05T22:43:38.073Z,10.37
2022-08-05T22:46:12.316Z,10.37
2022-08-05T22:48:41.050Z,10.32
2022-08-05T22:51:07.899Z,10.23
2022-08-05T22:53:35.831Z,10.22
2022-08-05T22:56:04.091Z,10.22
2022-08-05T22:58:36.576Z,10.16
2022-08-05T23:01:03.194Z,10.12
2022-08-05T23:03:58.967Z,10.07
2022-08-05T23:06:19.051Z,10.09
2022-08-05T23:08:45.721Z,10.04
2022-08-05T23:11:18.757Z,10.06
2022-08-05T23:13:45.861Z,10.08
2022-08-05T23:16:26.062Z,10.10
2022-08-05T23:19:00.253Z,10.05
2022-08-05T23:21:42.429Z,10.06
2022-08-05T23:24:11.064Z,10.04
2022-08-05T23:26:38.129Z,9.99
2022-08-05T23:29:05.305Z,9.90
2022-08-05T23:31:31.927Z,9.79
2022-08-05T23:34:04.029Z,9.72
2022-08-05T23:36:40.018Z,9.66
2022-08-05T23:39:17.202Z,9.64
2022-08-05T23:41:50.679Z,9.66
2022-08-05T23:44:17.254Z,9.63
2022-08-05T23:46:46.506Z,9.61
2022-08-05T23:49:16.121Z,9.61
2022-08-05T23:52:02.647Z,9.62
2022-08-05T23:54:36.442Z,9.62
2022-08-05T23:57:07.478Z,9.66
